Time,TemperatureF,DewpointF,PressureIn,WindDirection,WindDirectionDegrees,WindSpeedMPH,WindSpeedGustMPH,Humidity,HourlyPrecipIn,Conditions,Clouds,dailyrainin,SoftwareType,DateUTC
2013-09-03 00:00:00,51.7,50.0,29.90,NNE,14,0.0,0.0,94,0.00,,---,0.00,VWS V14.00,2013-09-03 05:00:00,
2013-09-03 00:04:00,51.7,50.0,29.90,NNE,14,0.0,0.0,94,0.00,,---,0.00,VWS V14.00,2013-09-03 05:04:00,
2013-09-03 00:05:00,51.7,50.0,29.91,NNE,14,0.0,0.0,94,0.00,,---,0.00,VWS V14.00,2013-09-03 05:05:00,
2013-09-03 00:09:00,51.7,50.0,29.91,NNE,14,0.0,0.0,94,0.00,,---,0.00,VWS V14.00,2013-09-03 05:09:00,
2013-09-03 00:10:00,51.7,50.0,29.91,NNE,14,0.0,0.0,94,0.00,,---,0.00,VWS V14.00,2013-09-03 05:10:00,
2013-09-03 00:14:00,51.7,50.0,29.90,NNE,14,0.0,0.0,94,0.00,,---,0.00,VWS V14.00,2013-09-03 05:14:00,
2013-09-03 00:15:00,51.7,50.0,29.91,NNE,14,0.0,0.0,94,0.00,,---,0.00,VWS V14.00,2013-09-03 05:15:00,
2013-09-03 00:19:00,51.7,50.3,29.90,NNE,14,0.0,0.0,95,0.00,,---,0.00,VWS V14.00,2013-09-03 05:19:00,
2013-09-03 00:20:00,51.7,50.3,29.90,NNE,14,0.0,0.0,95,0.00,,---,0.00,VWS V14.00,2013-09-03 05:20:00,
2013-09-03 00:24:00,51.7,50.0,29.90,NNE,14,0.0,0.0,94,0.00,,---,0.00,VWS V14.00,2013-09-03 05:24:00,
2013-09-03 00:25:00,51.7,50.0,29.90,NNE,14,0.0,0.0,94,0.00,,---,0.00,VWS V14.00,2013-09-03 05:25:00,
2013-09-03 00:29:00,51.7,50.3,29.91,NNE,14,0.0,0.0,95,0.00,,---,0.00,VWS V14.00,2013-09-03 05:29:00,
2013-09-03 00:30:00,51.7,50.3,29.91,NNE,14,0.0,0.0,95,0.00,,---,0.00,VWS V14.00,2013-09-03 05:30:00,
2013-09-03 00:34:00,51.6,50.2,29.91,NNE,14,0.0,0.0,95,0.00,,---,0.00,VWS V14.00,2013-09-03 05:34:00,
2013-09-03 00:35:00,51.6,50.2,29.91,NNE,14,0.0,0.0,95,0.00,,---,0.00,VWS V14.00,2013-09-03 05:35:00,
2013-09-03 00:40:00,51.6,50.2,29.91,NNE,14,0.0,0.0,95,0.00,,---,0.00,VWS V14.00,2013-09-03 05:40:00,
2013-09-03 00:45:00,51.2,49.5,29.91,NNE,14,0.0,0.0,94,0.00,,---,0.00,VWS V14.00,2013-09-03 05:45:00,
2013-09-03 00:50:00,51.0,49.3,29.91,NNE,14,0.0,0.0,94,0.00,,---,0.00,VWS V14.00,2013-09-03 05:50:00,
2013-09-03 00:55:00,51.0,49.6,29.91,NNE,14,0.0,0.0,95,0.00,,---,0.00,VWS V14.00,2013-09-03 05:55:00,
2013-09-03 01:00:00,50.8,49.4,29.91,NNE,14,0.0,0.0,95,0.00,,---,0.00,VWS V14.00,2013-09-03 06:00:00,
2013-09-03 01:05:00,50.6,49.2,29.92,NNE,14,0.0,0.0,95,0.00,,---,0.00,VWS V14.00,2013-09-03 06:05:00,
2013-09-03 01:10:00,50.4,49.0,29.92,NNE,14,0.0,0.0,95,0.00,,---,0.00,VWS V14.00,2013-09-03 06:10:00,
2013-09-03 01:15:00,50.3,48.9,29.92,NNE,14,0.0,0.0,95,0.00,,---,0.00,VWS V14.00,2013-09-03 06:15:00,
2013-09-03 01:20:00,50.4,49.0,29.92,NNE,14,0.0,0.0,95,0.00,,---,0.00,VWS V14.00,2013-09-03 06:20:00,
2013-09-03 01:25:00,50.4,49.0,29.92,NNE,14,0.0,0.0,95,0.00,,---,0.00,VWS V14.00,2013-09-03 06:25:00,
2013-09-03 01:30:00,50.2,48.8,29.92,NNE,14,0.0,0.0,95,0.00,,---,0.00,VWS V14.00,2013-09-03 06:30:00,
2013-09-03 01:35:00,49.7,48.0,29.92,NNE,14,0.0,0.0,94,0.00,,---,0.00,VWS V14.00,2013-09-03 06:35:00,
2013-09-03 01:40:00,49.5,48.1,29.92,NNE,14,0.0,0.0,95,0.00,,---,0.00,VWS V14.00,2013-09-03 06:40:00,
2013-09-03 01:45:00,49.3,47.9,29.92,NNE,14,0.0,0.0,95,0.00,,---,0.00,VWS V14.00,2013-09-03 06:45:00,
2013-09-03 01:50:00,49.1,47.7,29.92,NNE,14,0.0,0.0,95,0.00,,---,0.00,VWS V14.00,2013-09-03 06:50:00,
2013-09-03 01:55:00,49.0,47.6,29.92,NNE,14,0.0,0.0,95,0.00,,---,0.00,VWS V14.00,2013-09-03 06:55:00,
2013-09-03 02:00:00,48.7,47.3,29.92,NNE,14,0.0,0.0,95,0.00,,---,0.00,VWS V14.00,2013-09-03 07:00:00,
2013-09-03 02:05:00,48.6,47.2,29.93,NNE,14,0.0,0.0,95,0.00,,---,0.00,VWS V14.00,2013-09-03 07:05:00,
2013-09-03 02:06:00,48.6,47.2,29.93,NNE,14,0.0,0.0,95,0.00,,---,0.00,VWS V14.00,2013-09-03 07:06:00,
2013-09-03 02:10:00,48.5,47.1,29.93,NNE,14,0.0,0.0,95,0.00,,---,0.00,VWS V14.00,2013-09-03 07:10:00,
2013-09-03 02:11:00,48.4,47.0,29.93,NNE,14,0.0,0.0,95,0.00,,---,0.00,VWS V14.00,2013-09-03 07:11:00,
2013-09-03 02:15:00,48.3,46.9,29.93,NNE,14,0.0,0.0,95,0.00,,---,0.00,VWS V14.00,2013-09-03 07:15:00,
2013-09-03 02:16:00,48.2,46.8,29.93,NNE,14,0.0,0.0,95,0.00,,---,0.00,VWS V14.00,2013-09-03 07:16:00,
2013-09-03 02:20:00,48.1,46.7,29.93,NNE,14,0.0,0.0,95,0.00,,---,0.00,VWS V14.00,2013-09-03 07:20:00,
2013-09-03 02:21:00,48.1,46.7,29.93,NNE,14,0.0,0.0,95,0.00,,---,0.00,VWS V14.00,2013-09-03 07:21:00,
2013-09-03 02:25:00,48.0,46.6,29.93,NNE,14,0.0,0.0,95,0.00,,---,0.00,VWS V14.00,2013-09-03 07:25:00,
2013-09-03 02:26:00,48.0,46.6,29.93,NNE,14,0.0,0.0,95,0.00,,---,0.00,VWS V14.00,2013-09-03 07:26:00,
2013-09-03 02:30:00,48.0,46.6,29.93,NNE,14,0.0,0.0,95,0.00,,---,0.00,VWS V14.00,2013-09-03 07:30:00,
2013-09-03 02:31:00,48.0,46.6,29.93,NNE,14,0.0,0.0,95,0.00,,---,0.00,VWS V14.00,2013-09-03 07:31:00,
2013-09-03 02:35:00,48.1,46.7,29.93,NNE,14,0.0,0.0,95,0.00,,---,0.00,VWS V14.00,2013-09-03 07:35:00,
2013-09-03 02:36:00,48.1,46.7,29.93,NNE,14,0.0,0.0,95,0.00,,---,0.00,VWS V14.00,2013-09-03 07:36:00,
2013-09-03 02:40:00,48.2,46.8,29.93,NNE,14,0.0,0.0,95,0.00,,---,0.00,VWS V14.00,2013-09-03 07:40:00,
2013-09-03 02:41:00,48.3,46.9,29.93,NNE,14,0.0,0.0,95,0.00,,---,0.00,VWS V14.00,2013-09-03 07:41:00,
2013-09-03 02:45:00,48.3,46.9,29.93,NNE,14,0.0,0.0,95,0.00,,---,0.00,VWS V14.00,2013-09-03 07:45:00,
2013-09-03 02:46:00,48.3,46.9,29.93,NNE,14,0.0,0.0,95,0.00,,---,0.00,VWS V14.00,2013-09-03 07:46:00,
2013-09-03 02:50:00,48.4,47.3,29.93,NNE,14,0.0,0.0,96,0.00,,---,0.00,VWS V14.00,2013-09-03 07:50:00,
2013-09-03 02:51:00,48.4,47.3,29.93,NNE,14,0.0,0.0,96,0.00,,---,0.00,VWS V14.00,2013-09-03 07:51:00,
2013-09-03 02:55:00,48.4,47.3,29.94,NNE,14,0.0,0.0,96,0.00,,---,0.00,VWS V14.00,2013-09-03 07:55:00,
2013-09-03 02:56:00,48.4,47.3,29.94,NNE,14,0.0,0.0,96,0.00,,---,0.00,VWS V14.00,2013-09-03 07:56:00,
2013-09-03 03:00:00,48.4,47.3,29.94,NNE,14,0.0,0.0,96,0.00,,---,0.00,VWS V14.00,2013-09-03 08:00:00,
2013-09-03 03:01:00,48.3,47.2,29.94,NNE,14,0.0,0.0,96,0.00,,---,0.00,VWS V14.00,2013-09-03 08:01:00,
2013-09-03 03:05:00,48.2,46.8,29.94,NNE,14,0.0,0.0,95,0.00,,---,0.00,VWS V14.00,2013-09-03 08:05:00,
2013-09-03 03:06:00,48.1,46.7,29.94,NNE,14,0.0,0.0,95,0.00,,---,0.00,VWS V14.00,2013-09-03 08:06:00,
2013-09-03 03:10:00,48.0,46.6,29.94,NNE,14,0.0,0.0,95,0.00,,---,0.00,VWS V14.00,2013-09-03 08:10:00,
2013-09-03 03:11:00,47.9,46.5,29.94,NNE,14,0.0,0.0,95,0.00,,---,0.00,VWS V14.00,2013-09-03 08:11:00,
2013-09-03 03:15:00,47.8,46.7,29.94,NNE,14,0.0,0.0,96,0.00,,---,0.00,VWS V14.00,2013-09-03 08:15:00,
2013-09-03 03:16:00,47.8,46.4,29.94,NNE,14,0.0,0.0,95,0.00,,---,0.00,VWS V14.00,2013-09-03 08:16:00,
2013-09-03 03:20:00,47.8,46.7,29.94,NNE,14,0.0,0.0,96,0.00,,---,0.00,VWS V14.00,2013-09-03 08:20:00,
2013-09-03 03:21:00,47.8,46.7,29.94,NNE,14,0.0,0.0,96,0.00,,---,0.00,VWS V14.00,2013-09-03 08:21:00,
2013-09-03 03:25:00,47.9,46.8,29.93,NNE,14,0.0,0.0,96,0.00,,---,0.00,VWS V14.00,2013-09-03 08:25:00,
2013-09-03 03:26:00,47.9,46.8,29.94,NNE,14,0.0,0.0,96,0.00,,---,0.00,VWS V14.00,2013-09-03 08:26:00,
2013-09-03 03:30:00,47.9,46.8,29.94,NNE,14,0.0,0.0,96,0.00,,---,0.00,VWS V14.00,2013-09-03 08:30:00,
2013-09-03 03:31:00,47.9,46.8,29.94,NNE,14,0.0,0.0,96,0.00,,---,0.00,VWS V14.00,2013-09-03 08:31:00,
2013-09-03 03:35:00,47.9,46.8,29.94,NNE,14,0.0,0.0,96,0.00,,---,0.00,VWS V14.00,2013-09-03 08:35:00,
2013-09-03 03:36:00,47.9,46.8,29.94,NNE,14,0.0,0.0,96,0.00,,---,0.00,VWS V14.00,2013-09-03 08:36:00,
2013-09-03 03:40:00,47.9,46.8,29.94,NNE,14,0.0,0.0,96,0.00,,---,0.00,VWS V14.00,2013-09-03 08:40:00,
2013-09-03 03:41:00,47.9,46.8,29.94,NNE,14,0.0,0.0,96,0.00,,---,0.00,VWS V14.00,2013-09-03 08:41:00,
2013-09-03 03:45:00,48.0,46.9,29.94,NNE,14,0.0,0.0,96,0.00,,---,0.00,VWS V14.00,2013-09-03 08:45:00,
2013-09-03 03:46:00,48.0,46.9,29.94,NNE,14,0.0,0.0,96,0.00,,---,0.00,VWS V14.00,2013-09-03 08:46:00,
2013-09-03 03:50:00,48.1,47.0,29.94,NNE,14,0.0,0.0,96,0.00,,---,0.00,VWS V14.00,2013-09-03 08:50:00,
2013-09-03 03:52:00,48.1,47.0,29.94,NNE,14,0.0,0.0,96,0.00,,---,0.00,VWS V14.00,2013-09-03 08:52:00,
2013-09-03 03:55:00,48.0,46.9,29.94,NNE,14,0.0,0.0,96,0.00,,---,0.00,VWS V14.00,2013-09-03 08:55:00,
2013-09-03 03:57:00,48.0,46.9,29.94,NNE,14,0.0,0.0,96,0.00,,---,0.00,VWS V14.00,2013-09-03 08:57:00,
2013-09-03 04:00:00,48.0,46.9,29.94,NNE,14,0.0,0.0,96,0.00,,---,0.00,VWS V14.00,2013-09-03 09:00:00,
2013-09-03 04:02:00,48.0,46.9,29.94,NNE,14,0.0,0.0,96,0.00,,---,0.00,VWS V14.00,2013-09-03 09:02:00,
2013-09-03 04:05:00,48.0,46.9,29.94,NNE,14,0.0,0.0,96,0.00,,---,0.00,VWS V14.00,2013-09-03 09:05:00,
2013-09-03 04:07:00,48.0,46.9,29.94,NNE,14,0.0,0.0,96,0.00,,---,0.00,VWS V14.00,2013-09-03 09:07:00,
2013-09-03 04:10:00,48.0,46.9,29.94,NNE,14,0.0,0.0,96,0.00,,---,0.00,VWS V14.00,2013-09-03 09:10:00,
2013-09-03 04:12:00,48.0,46.9,29.94,NNE,14,0.0,0.0,96,0.00,,---,0.00,VWS V14.00,2013-09-03 09:12:00,
2013-09-03 04:15:00,48.0,46.9,29.94,NNE,14,0.0,0.0,96,0.00,,---,0.00,VWS V14.00,2013-09-03 09:15:00,
2013-09-03 04:17:00,48.0,46.9,29.94,NNE,14,0.0,0.0,96,0.00,,---,0.00,VWS V14.00,2013-09-03 09:17:00,
2013-09-03 04:20:00,48.0,46.9,29.94,NNE,14,0.0,0.0,96,0.00,,---,0.00,VWS V14.00,2013-09-03 09:20:00,
2013-09-03 04:22:00,48.0,46.9,29.95,NNE,14,0.0,0.0,96,0.00,,---,0.00,VWS V14.00,2013-09-03 09:22:00,
2013-09-03 04:25:00,48.0,46.9,29.95,NNE,14,0.0,0.0,96,0.00,,---,0.00,VWS V14.00,2013-09-03 09:25:00,
2013-09-03 04:27:00,48.0,46.9,29.94,NNE,14,0.0,0.0,96,0.00,,---,0.00,VWS V14.00,2013-09-03 09:27:00,
2013-09-03 04:30:00,47.9,46.8,29.94,NNE,14,0.0,0.0,96,0.00,,---,0.00,VWS V14.00,2013-09-03 09:30:00,
2013-09-03 04:32:00,47.9,46.8,29.94,NNE,14,0.0,0.0,96,0.00,,---,0.00,VWS V14.00,2013-09-03 09:32:00,
2013-09-03 04:35:00,47.9,46.8,29.94,NNE,14,0.0,0.0,96,0.00,,---,0.00,VWS V14.00,2013-09-03 09:35:00,
2013-09-03 04:37:00,47.8,46.7,29.94,NNE,14,0.0,0.0,96,0.00,,---,0.00,VWS V14.00,2013-09-03 09:37:00,
2013-09-03 04:40:00,47.8,46.7,29.94,NNE,14,0.0,0.0,96,0.00,,---,0.00,VWS V14.00,2013-09-03 09:40:00,
2013-09-03 04:42:00,47.7,46.6,29.95,NNE,14,0.0,0.0,96,0.00,,---,0.00,VWS V14.00,2013-09-03 09:42:00,
2013-09-03 04:45:00,47.7,46.6,29.95,NNE,14,0.0,0.0,96,0.00,,---,0.00,VWS V14.00,2013-09-03 09:45:00,
2013-09-03 04:47:00,47.6,46.5,29.95,NNE,14,0.0,0.0,96,0.00,,---,0.00,VWS V14.00,2013-09-03 09:47:00,
2013-09-03 04:50:00,47.6,46.5,29.95,NNE,14,0.0,0.0,96,0.00,,---,0.00,VWS V14.00,2013-09-03 09:50:00,
2013-09-03 04:52:00,47.5,46.4,29.95,NNE,14,0.0,0.0,96,0.00,,---,0.00,VWS V14.00,2013-09-03 09:52:00,
2013-09-03 04:55:00,47.5,46.4,29.95,NNE,14,0.0,0.0,96,0.00,,---,0.00,VWS V14.00,2013-09-03 09:55:00,
2013-09-03 04:57:00,47.4,46.3,29.95,NNE,14,0.0,0.0,96,0.00,,---,0.00,VWS V14.00,2013-09-03 09:57:00,
2013-09-03 05:00:00,47.4,46.3,29.95,NNE,14,0.0,0.0,96,0.00,,---,0.00,VWS V14.00,2013-09-03 10:00:00,
2013-09-03 05:02:00,47.4,46.3,29.95,NNE,14,0.0,0.0,96,0.00,,---,0.00,VWS V14.00,2013-09-03 10:02:00,
2013-09-03 05:05:00,47.3,46.2,29.95,NNE,14,0.0,0.0,96,0.00,,---,0.00,VWS V14.00,2013-09-03 10:05:00,
2013-09-03 05:07:00,47.3,46.2,29.95,NNE,14,0.0,0.0,96,0.00,,---,0.00,VWS V14.00,2013-09-03 10:07:00,
2013-09-03 05:10:00,47.2,46.1,29.95,NNE,14,0.0,0.0,96,0.00,,---,0.00,VWS V14.00,2013-09-03 10:10:00,
2013-09-03 05:12:00,47.2,46.1,29.95,NNE,14,0.0,0.0,96,0.00,,---,0.00,VWS V14.00,2013-09-03 10:12:00,
2013-09-03 05:15:00,47.1,46.0,29.95,NNE,14,0.0,0.0,96,0.00,,---,0.00,VWS V14.00,2013-09-03 10:15:00,
2013-09-03 05:17:00,47.1,46.0,29.95,NNE,14,0.0,0.0,96,0.00,,---,0.00,VWS V14.00,2013-09-03 10:17:00,
2013-09-03 05:20:00,47.1,46.0,29.95,NNE,14,0.0,0.0,96,0.00,,---,0.00,VWS V14.00,2013-09-03 10:20:00,
2013-09-03 05:22:00,47.0,45.9,29.95,NNE,14,0.0,0.0,96,0.00,,---,0.00,VWS V14.00,2013-09-03 10:22:00,
2013-09-03 05:25:00,47.0,45.9,29.95,NNE,14,0.0,0.0,96,0.00,,---,0.00,VWS V14.00,2013-09-03 10:25:00,
2013-09-03 05:27:00,46.9,45.8,29.95,NNE,14,0.0,0.0,96,0.00,,---,0.00,VWS V14.00,2013-09-03 10:27:00,
2013-09-03 05:30:00,46.9,45.8,29.95,NNE,14,0.0,0.0,96,0.00,,---,0.00,VWS V14.00,2013-09-03 10:30:00,
2013-09-03 05:33:00,46.8,45.7,29.95,NNE,14,0.0,0.0,96,0.00,,---,0.00,VWS V14.00,2013-09-03 10:33:00,
2013-09-03 05:35:00,46.8,45.7,29.95,NNE,14,0.0,0.0,96,0.00,,---,0.00,VWS V14.00,2013-09-03 10:35:00,
2013-09-03 05:38:00,46.7,45.6,29.96,NNE,14,0.0,0.0,96,0.00,,---,0.00,VWS V14.00,2013-09-03 10:38:00,
2013-09-03 05:40:00,46.7,45.6,29.95,NNE,14,0.0,0.0,96,0.00,,---,0.00,VWS V14.00,2013-09-03 10:40:00,
2013-09-03 05:43:00,46.7,45.6,29.95,NNE,14,0.0,0.0,96,0.00,,---,0.00,VWS V14.00,2013-09-03 10:43:00,
2013-09-03 05:45:00,46.6,45.5,29.96,NNE,14,0.0,0.0,96,0.00,,---,0.00,VWS V14.00,2013-09-03 10:45:00,
2013-09-03 05:48:00,46.5,45.4,29.95,NNE,14,0.0,0.0,96,0.00,,---,0.00,VWS V14.00,2013-09-03 10:48:00,
2013-09-03 05:50:00,46.6,45.5,29.95,NNE,14,0.0,0.0,96,0.00,,---,0.00,VWS V14.00,2013-09-03 10:50:00,
2013-09-03 05:53:00,46.5,45.4,29.95,NNE,14,0.0,0.0,96,0.00,,---,0.00,VWS V14.00,2013-09-03 10:53:00,
2013-09-03 05:55:00,46.5,45.4,29.96,NNE,14,0.0,0.0,96,0.00,,---,0.00,VWS V14.00,2013-09-03 10:55:00,
2013-09-03 05:58:00,46.4,45.3,29.96,NNE,14,0.0,0.0,96,0.00,,---,0.00,VWS V14.00,2013-09-03 10:58:00,
2013-09-03 06:00:00,46.3,45.2,29.96,NNE,14,0.0,0.0,96,0.00,,---,0.00,VWS V14.00,2013-09-03 11:00:00,
2013-09-03 06:03:00,46.2,45.1,29.96,NNE,14,0.0,0.0,96,0.00,,---,0.00,VWS V14.00,2013-09-03 11:03:00,
2013-09-03 06:05:00,46.2,45.1,29.96,NNE,14,0.0,0.0,96,0.00,,---,0.00,VWS V14.00,2013-09-03 11:05:00,
2013-09-03 06:08:00,46.0,44.9,29.96,NNE,14,0.0,0.0,96,0.00,,---,0.00,VWS V14.00,2013-09-03 11:08:00,
2013-09-03 06:10:00,46.0,44.9,29.96,NNE,14,0.0,0.0,96,0.00,,---,0.00,VWS V14.00,2013-09-03 11:10:00,
2013-09-03 06:13:00,46.0,44.9,29.96,NNE,14,0.0,0.0,96,0.00,,---,0.00,VWS V14.00,2013-09-03 11:13:00,
2013-09-03 06:15:00,46.0,44.9,29.96,NNE,14,0.0,0.0,96,0.00,,---,0.00,VWS V14.00,2013-09-03 11:15:00,
2013-09-03 06:18:00,46.0,44.9,29.96,NNE,14,0.0,0.0,96,0.00,,---,0.00,VWS V14.00,2013-09-03 11:18:00,
2013-09-03 06:20:00,45.9,44.8,29.97,NNE,14,0.0,0.0,96,0.00,,---,0.00,VWS V14.00,2013-09-03 11:20:00,
2013-09-03 06:23:00,45.9,44.8,29.96,NNE,14,0.0,0.0,96,0.00,,---,0.00,VWS V14.00,2013-09-03 11:23:00,
2013-09-03 06:25:00,45.8,44.7,29.96,NNE,14,0.0,0.0,96,0.00,,---,0.00,VWS V14.00,2013-09-03 11:25:00,
2013-09-03 06:28:00,45.8,45.0,29.96,NNE,14,0.0,0.0,97,0.00,,---,0.00,VWS V14.00,2013-09-03 11:28:00,
2013-09-03 06:30:00,45.8,44.7,29.96,NNE,14,0.0,0.0,96,0.00,,---,0.00,VWS V14.00,2013-09-03 11:30:00,
2013-09-03 06:33:00,45.7,44.6,29.96,NNE,14,0.0,0.0,96,0.00,,---,0.00,VWS V14.00,2013-09-03 11:33:00,
2013-09-03 06:35:00,45.8,44.7,29.96,NNE,14,0.0,0.0,96,0.00,,---,0.00,VWS V14.00,2013-09-03 11:35:00,
2013-09-03 06:38:00,45.9,45.1,29.96,NNE,14,0.0,0.0,97,0.00,,---,0.00,VWS V14.00,2013-09-03 11:38:00,
2013-09-03 06:40:00,45.9,45.1,29.96,NNE,14,0.0,0.0,97,0.00,,---,0.00,VWS V14.00,2013-09-03 11:40:00,
2013-09-03 06:43:00,45.9,45.1,29.96,NNE,14,0.0,0.0,97,0.00,,---,0.00,VWS V14.00,2013-09-03 11:43:00,
2013-09-03 06:45:00,45.9,45.1,29.96,NNE,14,0.0,0.0,97,0.00,,---,0.00,VWS V14.00,2013-09-03 11:45:00,
2013-09-03 06:48:00,46.0,45.2,29.97,NNE,14,0.0,0.0,97,0.00,,---,0.00,VWS V14.00,2013-09-03 11:48:00,
2013-09-03 06:50:00,46.0,45.2,29.97,NNE,14,0.0,0.0,97,0.00,,---,0.00,VWS V14.00,2013-09-03 11:50:00,
2013-09-03 06:53:00,46.0,45.2,29.96,NNE,14,0.0,0.0,97,0.00,,---,0.00,VWS V14.00,2013-09-03 11:53:00,
2013-09-03 06:55:00,46.1,45.3,29.96,NNE,14,0.0,0.0,97,0.00,,---,0.00,VWS V14.00,2013-09-03 11:55:00,
2013-09-03 06:58:00,46.2,45.4,29.97,NNE,14,0.0,0.0,97,0.00,,---,0.00,VWS V14.00,2013-09-03 11:58:00,
2013-09-03 07:00:00,46.2,45.4,29.97,NNE,14,0.0,0.0,97,0.00,,---,0.00,VWS V14.00,2013-09-03 12:00:00,
2013-09-03 07:03:00,46.7,45.9,29.98,NNE,14,0.0,0.0,97,0.00,,---,0.00,VWS V14.00,2013-09-03 12:03:00,
2013-09-03 07:05:00,46.7,45.9,29.98,NNE,14,0.0,0.0,97,0.00,,---,0.00,VWS V14.00,2013-09-03 12:05:00,
2013-09-03 07:08:00,47.0,46.2,29.98,NNE,14,0.0,0.0,97,0.00,,---,0.00,VWS V14.00,2013-09-03 12:08:00,
2013-09-03 07:10:00,47.0,46.2,29.98,NNE,14,0.0,0.0,97,0.00,,---,0.00,VWS V14.00,2013-09-03 12:10:00,
2013-09-03 07:13:00,47.3,46.5,29.98,NNE,14,0.0,0.0,97,0.00,,---,0.00,VWS V14.00,2013-09-03 12:13:00,
2013-09-03 07:15:00,47.3,46.5,29.98,NNE,14,0.0,0.0,97,0.00,,---,0.00,VWS V14.00,2013-09-03 12:15:00,
2013-09-03 07:18:00,47.6,46.8,29.98,NNE,14,0.0,0.0,97,0.00,,---,0.00,VWS V14.00,2013-09-03 12:18:00,
2013-09-03 07:20:00,47.6,46.8,29.98,NNE,14,0.0,0.0,97,0.00,,---,0.00,VWS V14.00,2013-09-03 12:20:00,
2013-09-03 07:23:00,47.9,47.1,29.98,NNE,14,0.0,0.0,97,0.00,,---,0.00,VWS V14.00,2013-09-03 12:23:00,
2013-09-03 07:25:00,47.9,47.1,29.98,NNE,14,0.0,0.0,97,0.00,,---,0.00,VWS V14.00,2013-09-03 12:25:00,
2013-09-03 07:29:00,48.3,47.5,29.99,NNE,14,0.0,0.0,97,0.00,,---,0.00,VWS V14.00,2013-09-03 12:29:00,
2013-09-03 07:30:00,48.3,47.5,29.99,NNE,14,0.0,0.0,97,0.00,,---,0.00,VWS V14.00,2013-09-03 12:30:00,
2013-09-03 07:34:00,48.5,47.7,29.99,NNE,14,0.0,0.0,97,0.00,,---,0.00,VWS V14.00,2013-09-03 12:34:00,
2013-09-03 07:35:00,48.6,47.8,29.99,NNE,14,0.0,0.0,97,0.00,,---,0.00,VWS V14.00,2013-09-03 12:35:00,
2013-09-03 07:39:00,48.7,47.9,29.99,NNE,14,0.0,0.0,97,0.00,,---,0.00,VWS V14.00,2013-09-03 12:39:00,
2013-09-03 07:40:00,48.7,47.9,29.99,NNE,14,0.0,0.0,97,0.00,,---,0.00,VWS V14.00,2013-09-03 12:40:00,
2013-09-03 07:44:00,49.0,48.2,29.98,NNE,14,0.0,0.0,97,0.00,,---,0.00,VWS V14.00,2013-09-03 12:44:00,
2013-09-03 07:45:00,49.0,48.2,29.98,NNE,14,0.0,0.0,97,0.00,,---,0.00,VWS V14.00,2013-09-03 12:45:00,
2013-09-03 07:49:00,49.3,48.5,29.99,NNE,14,0.0,0.0,97,0.00,,---,0.00,VWS V14.00,2013-09-03 12:49:00,
2013-09-03 07:50:00,49.3,48.5,29.99,NNE,14,0.0,0.0,97,0.00,,---,0.00,VWS V14.00,2013-09-03 12:50:00,
2013-09-03 07:54:00,49.4,48.6,29.98,NNE,14,0.0,0.0,97,0.00,,---,0.00,VWS V14.00,2013-09-03 12:54:00,
2013-09-03 07:55:00,49.4,48.6,29.98,NNE,14,0.0,0.0,97,0.00,,---,0.00,VWS V14.00,2013-09-03 12:55:00,
2013-09-03 07:59:00,50.3,49.5,29.98,NNE,14,0.0,0.0,97,0.00,,---,0.00,VWS V14.00,2013-09-03 12:59:00,
2013-09-03 08:00:00,50.4,49.9,29.98,NNE,14,0.0,0.0,98,0.00,,---,0.00,VWS V14.00,2013-09-03 13:00:00,
2013-09-03 08:04:00,51.4,50.6,29.99,NNE,14,0.0,0.0,97,0.00,,---,0.00,VWS V14.00,2013-09-03 13:04:00,
2013-09-03 08:05:00,51.4,50.6,29.99,NNE,14,0.0,0.0,97,0.00,,---,0.00,VWS V14.00,2013-09-03 13:05:00,
2013-09-03 08:09:00,51.9,51.4,29.99,NNE,14,0.0,0.0,98,0.00,,---,0.00,VWS V14.00,2013-09-03 13:09:00,
2013-09-03 08:10:00,51.9,51.1,29.99,NNE,14,0.0,0.0,97,0.00,,---,0.00,VWS V14.00,2013-09-03 13:10:00,
2013-09-03 08:14:00,52.5,52.0,29.99,NNE,14,0.0,0.0,98,0.00,,---,0.00,VWS V14.00,2013-09-03 13:14:00,
2013-09-03 08:15:00,52.6,52.0,29.99,NNE,14,0.0,0.0,98,0.00,,---,0.00,VWS V14.00,2013-09-03 13:15:00,
2013-09-03 08:19:00,53.3,52.5,29.99,NNE,14,0.0,0.0,97,0.00,,---,0.00,VWS V14.00,2013-09-03 13:19:00,
2013-09-03 08:20:00,53.3,52.5,29.99,NNE,14,0.0,0.0,97,0.00,,---,0.00,VWS V14.00,2013-09-03 13:20:00,
2013-09-03 08:24:00,54.1,53.5,29.99,NNE,14,0.0,0.0,98,0.00,,---,0.00,VWS V14.00,2013-09-03 13:24:00,
2013-09-03 08:25:00,54.2,53.7,29.99,NNE,14,0.0,0.0,98,0.00,,---,0.00,VWS V14.00,2013-09-03 13:25:00,
2013-09-03 08:29:00,55.1,54.3,29.98,NNE,14,0.0,1.0,97,0.00,,---,0.00,VWS V14.00,2013-09-03 13:29:00,
2013-09-03 08:30:00,55.1,54.3,29.98,NNE,14,0.0,1.0,97,0.00,,---,0.00,VWS V14.00,2013-09-03 13:30:00,
2013-09-03 08:34:00,55.4,54.6,29.99,NNE,13,0.0,2.0,97,0.00,,---,0.00,VWS V14.00,2013-09-03 13:34:00,
2013-09-03 08:35:00,55.4,54.6,29.99,NNE,13,0.0,2.0,97,0.00,,---,0.00,VWS V14.00,2013-09-03 13:35:00,
2013-09-03 08:39:00,55.9,55.1,29.99,NNE,13,0.0,1.0,97,0.00,,---,0.00,VWS V14.00,2013-09-03 13:39:00,
2013-09-03 08:40:00,55.9,55.1,29.99,NNE,13,0.0,1.0,97,0.00,,---,0.00,VWS V14.00,2013-09-03 13:40:00,
2013-09-03 08:44:00,56.6,55.5,29.99,NNE,13,0.0,1.0,96,0.00,,---,0.00,VWS V14.00,2013-09-03 13:44:00,
2013-09-03 08:45:00,56.6,55.5,29.99,NNE,13,0.0,1.0,96,0.00,,---,0.00,VWS V14.00,2013-09-03 13:45:00,
2013-09-03 08:49:00,56.9,55.5,29.99,NNE,13,0.0,3.0,95,0.00,,---,0.00,VWS V14.00,2013-09-03 13:49:00,
2013-09-03 08:50:00,56.9,55.5,29.99,NNE,13,0.0,3.0,95,0.00,,---,0.00,VWS V14.00,2013-09-03 13:50:00,
2013-09-03 08:54:00,57.2,55.5,29.99,NNE,13,0.0,3.0,94,0.00,,---,0.00,VWS V14.00,2013-09-03 13:54:00,
2013-09-03 08:55:00,57.2,55.5,29.99,NNE,13,0.0,3.0,94,0.00,,---,0.00,VWS V14.00,2013-09-03 13:55:00,
2013-09-03 08:59:00,57.8,55.8,29.99,NNE,13,0.0,0.0,93,0.00,,---,0.00,VWS V14.00,2013-09-03 13:59:00,
2013-09-03 09:00:00,57.8,55.8,29.99,NNE,13,0.0,1.0,93,0.00,,---,0.00,VWS V14.00,2013-09-03 14:00:00,
2013-09-03 09:04:00,58.3,55.7,29.99,North,355,2.0,3.0,91,0.00,,---,0.00,VWS V14.00,2013-09-03 14:04:00,
2013-09-03 09:05:00,58.3,55.7,29.99,North,355,3.0,3.0,91,0.00,,---,0.00,VWS V14.00,2013-09-03 14:05:00,
2013-09-03 09:09:00,58.6,55.4,29.99,NW,321,0.0,0.0,89,0.00,,---,0.00,VWS V14.00,2013-09-03 14:09:00,
2013-09-03 09:10:00,58.5,55.3,29.99,NW,321,0.0,4.0,89,0.00,,---,0.00,VWS V14.00,2013-09-03 14:10:00,
2013-09-03 09:14:00,59.2,55.7,29.99,NW,323,0.0,0.0,88,0.00,,---,0.00,VWS V14.00,2013-09-03 14:14:00,
2013-09-03 09:15:00,59.1,55.6,29.99,NW,323,0.0,3.0,88,0.00,,---,0.00,VWS V14.00,2013-09-03 14:15:00,
2013-09-03 09:19:00,59.9,56.0,29.99,NNW,346,0.0,2.0,87,0.00,,---,0.00,VWS V14.00,2013-09-03 14:19:00,
2013-09-03 09:20:00,59.9,56.0,29.99,NNW,346,2.0,4.0,87,0.00,,---,0.00,VWS V14.00,2013-09-03 14:20:00,
2013-09-03 09:24:00,60.2,56.0,29.99,NNW,327,1.0,1.0,86,0.00,,---,0.00,VWS V14.00,2013-09-03 14:24:00,
2013-09-03 09:25:00,60.2,56.0,29.99,NNW,327,0.0,4.0,86,0.00,,---,0.00,VWS V14.00,2013-09-03 14:25:00,
2013-09-03 09:29:00,60.5,55.7,29.99,NNW,348,0.0,3.0,84,0.00,,---,0.00,VWS V14.00,2013-09-03 14:29:00,
2013-09-03 09:30:00,60.5,55.7,29.99,NNW,348,2.0,5.0,84,0.00,,---,0.00,VWS V14.00,2013-09-03 14:30:00,
2013-09-03 09:34:00,60.9,55.7,29.99,NNW,341,0.0,0.0,83,0.00,,---,0.00,VWS V14.00,2013-09-03 14:34:00,
2013-09-03 09:35:00,60.8,55.9,29.99,NNW,341,0.0,5.0,84,0.00,,---,0.00,VWS V14.00,2013-09-03 14:35:00,
2013-09-03 09:39:00,61.4,56.2,29.99,NNW,340,0.0,0.0,83,0.00,,---,0.00,VWS V14.00,2013-09-03 14:39:00,
2013-09-03 09:40:00,61.3,56.1,29.99,NNW,340,0.0,3.0,83,0.00,,---,0.00,VWS V14.00,2013-09-03 14:40:00,
2013-09-03 09:45:00,62.1,56.2,30.00,NW,319,2.0,3.0,81,0.00,,---,0.00,VWS V14.00,2013-09-03 14:45:00,
2013-09-03 09:50:00,62.5,56.2,29.99,NW,321,0.0,1.0,80,0.00,,---,0.00,VWS V14.00,2013-09-03 14:50:00,
2013-09-03 09:55:00,62.9,56.6,29.99,North,360,3.0,3.0,80,0.00,,---,0.00,VWS V14.00,2013-09-03 14:55:00,
2013-09-03 10:00:00,63.0,56.0,29.99,NW,317,0.0,2.0,78,0.00,,---,0.00,VWS V14.00,2013-09-03 15:00:00,
2013-09-03 10:05:00,63.3,56.0,29.99,NNW,338,0.0,0.0,77,0.00,,---,0.00,VWS V14.00,2013-09-03 15:05:00,
2013-09-03 10:10:00,63.5,56.5,29.99,WNW,299,0.0,4.0,78,0.00,,---,0.00,VWS V14.00,2013-09-03 15:10:00,
2013-09-03 10:15:00,64.0,56.3,29.99,NW,322,0.0,4.0,76,0.00,,---,0.00,VWS V14.00,2013-09-03 15:15:00,
2013-09-03 10:20:00,64.4,56.7,29.99,NW,322,0.0,0.0,76,0.00,,---,0.00,VWS V14.00,2013-09-03 15:20:00,
2013-09-03 10:25:00,64.6,55.8,29.99,NNW,342,0.0,1.0,73,0.00,,---,0.00,VWS V14.00,2013-09-03 15:25:00,
2013-09-03 10:30:00,65.0,56.2,29.99,WNW,283,0.0,2.0,73,0.00,,---,0.00,VWS V14.00,2013-09-03 15:30:00,
2013-09-03 10:35:00,65.2,56.0,29.99,NW,321,0.0,4.0,72,0.00,,---,0.00,VWS V14.00,2013-09-03 15:35:00,
2013-09-03 10:40:00,65.5,56.6,29.99,WNW,303,3.0,7.0,73,0.01,,---,0.01,VWS V14.00,2013-09-03 15:40:00,
2013-09-03 10:45:00,65.7,56.0,29.99,WNW,294,0.0,1.0,71,0.01,,---,0.01,VWS V14.00,2013-09-03 15:45:00,
2013-09-03 10:50:00,66.1,56.8,29.99,NNW,344,3.0,5.0,72,0.01,,---,0.01,VWS V14.00,2013-09-03 15:50:00,
2013-09-03 10:55:00,66.4,55.9,29.99,NNE,12,2.0,2.0,69,0.01,,---,0.01,VWS V14.00,2013-09-03 15:55:00,
2013-09-03 11:00:00,66.0,55.5,29.98,NNE,15,3.0,9.0,69,0.01,,---,0.01,VWS V14.00,2013-09-03 16:00:00,
2013-09-03 11:05:00,65.9,55.5,29.98,NNE,13,5.0,10.0,69,0.01,,---,0.01,VWS V14.00,2013-09-03 16:05:00,
2013-09-03 11:06:00,65.8,55.0,29.98,North,5,0.0,10.0,68,0.01,,---,0.01,VWS V14.00,2013-09-03 16:06:00,
2013-09-03 11:10:00,65.8,55.8,29.98,North,360,3.0,10.0,70,0.01,,---,0.01,VWS V14.00,2013-09-03 16:10:00,
2013-09-03 11:11:00,66.0,56.0,29.98,North,360,0.0,3.0,70,0.01,,---,0.01,VWS V14.00,2013-09-03 16:11:00,
2013-09-03 11:15:00,66.3,55.8,29.98,NW,309,0.0,8.0,69,0.01,,---,0.01,VWS V14.00,2013-09-03 16:15:00,
2013-09-03 11:16:00,66.5,56.4,29.98,NNE,25,1.0,1.0,70,0.01,,---,0.01,VWS V14.00,2013-09-03 16:16:00,
2013-09-03 11:20:00,67.1,56.6,29.98,WNW,284,0.0,3.0,69,0.01,,---,0.01,VWS V14.00,2013-09-03 16:20:00,
2013-09-03 11:21:00,67.2,56.3,29.98,North,9,6.0,9.0,68,0.01,,---,0.01,VWS V14.00,2013-09-03 16:21:00,
2013-09-03 11:25:00,67.0,56.1,29.98,North,360,0.0,9.0,68,0.01,,---,0.01,VWS V14.00,2013-09-03 16:25:00,
2013-09-03 11:26:00,67.1,55.8,29.98,NE,38,4.0,4.0,67,0.01,,---,0.01,VWS V14.00,2013-09-03 16:26:00,
2013-09-03 11:30:00,67.2,55.5,29.98,NNE,29,0.0,4.0,66,0.01,,---,0.01,VWS V14.00,2013-09-03 16:30:00,
2013-09-03 11:31:00,67.3,56.0,29.98,South,173,3.0,4.0,67,0.01,,---,0.01,VWS V14.00,2013-09-03 16:31:00,
2013-09-03 11:35:00,67.5,56.6,29.97,SSW,200,0.0,7.0,68,0.01,,---,0.01,VWS V14.00,2013-09-03 16:35:00,
2013-09-03 11:36:00,67.7,56.4,29.97,West,268,0.0,3.0,67,0.01,,---,0.01,VWS V14.00,2013-09-03 16:36:00,
2013-09-03 11:40:00,68.0,55.8,29.97,SSW,213,0.0,4.0,65,0.01,,---,0.01,VWS V14.00,2013-09-03 16:40:00,
2013-09-03 11:41:00,68.0,56.2,29.98,SW,226,0.0,3.0,66,0.01,,---,0.01,VWS V14.00,2013-09-03 16:41:00,
2013-09-03 11:45:00,67.9,55.3,29.98,NNE,14,0.0,6.0,64,0.01,,---,0.01,VWS V14.00,2013-09-03 16:45:00,
2013-09-03 11:46:00,67.7,55.1,29.97,NW,323,0.0,5.0,64,0.00,,---,0.01,VWS V14.00,2013-09-03 16:46:00,
2013-09-03 11:50:00,67.7,55.5,29.97,NW,323,1.0,5.0,65,0.00,,---,0.01,VWS V14.00,2013-09-03 16:50:00,
2013-09-03 11:51:00,67.9,55.7,29.97,East,95,0.0,3.0,65,0.00,,---,0.01,VWS V14.00,2013-09-03 16:51:00,
2013-09-03 11:55:00,68.3,55.7,29.97,NW,322,0.0,5.0,64,0.00,,---,0.01,VWS V14.00,2013-09-03 16:55:00,
2013-09-03 11:56:00,68.6,56.4,29.97,NNW,338,1.0,3.0,65,0.00,,---,0.01,VWS V14.00,2013-09-03 16:56:00,
2013-09-03 12:00:00,68.9,55.8,29.97,NW,317,1.0,6.0,63,0.00,,---,0.01,VWS V14.00,2013-09-03 17:00:00,
2013-09-03 12:01:00,69.0,55.9,29.97,NNE,17,3.0,7.0,63,0.00,,---,0.01,VWS V14.00,2013-09-03 17:01:00,
2013-09-03 12:05:00,68.9,55.8,29.97,NW,323,0.0,7.0,63,0.00,,---,0.01,VWS V14.00,2013-09-03 17:05:00,
2013-09-03 12:06:00,68.9,55.8,29.96,NNE,21,0.0,1.0,63,0.00,,---,0.01,VWS V14.00,2013-09-03 17:06:00,
2013-09-03 12:10:00,69.1,55.5,29.96,NW,314,5.0,6.0,62,0.00,,---,0.01,VWS V14.00,2013-09-03 17:10:00,
2013-09-03 12:11:00,69.0,55.5,29.97,NW,322,0.0,6.0,62,0.00,,---,0.01,VWS V14.00,2013-09-03 17:11:00,
2013-09-03 12:15:00,69.2,55.6,29.96,WSW,243,0.0,6.0,62,0.00,,---,0.01,VWS V14.00,2013-09-03 17:15:00,
2013-09-03 12:16:00,69.5,55.5,29.96,NNW,348,2.0,2.0,61,0.00,,---,0.01,VWS V14.00,2013-09-03 17:16:00,
2013-09-03 12:20:00,69.8,56.2,29.96,SSE,161,0.0,3.0,62,0.00,,---,0.01,VWS V14.00,2013-09-03 17:20:00,
2013-09-03 12:21:00,70.2,56.1,29.96,WSW,242,0.0,1.0,61,0.00,,---,0.01,VWS V14.00,2013-09-03 17:21:00,
2013-09-03 12:25:00,70.7,56.2,29.96,SSE,167,3.0,3.0,60,0.00,,---,0.01,VWS V14.00,2013-09-03 17:25:00,
2013-09-03 12:26:00,70.7,55.7,29.96,NE,49,2.0,5.0,59,0.00,,---,0.01,VWS V14.00,2013-09-03 17:26:00,
2013-09-03 12:30:00,70.5,55.5,29.96,NNE,22,2.0,7.0,59,0.00,,---,0.01,VWS V14.00,2013-09-03 17:30:00,
2013-09-03 12:31:00,70.2,55.7,29.96,NNW,327,1.0,3.0,60,0.00,,---,0.01,VWS V14.00,2013-09-03 17:31:00,
2013-09-03 12:35:00,70.3,56.2,29.96,NW,317,0.0,6.0,61,0.00,,---,0.01,VWS V14.00,2013-09-03 17:35:00,
2013-09-03 12:36:00,70.4,55.9,29.96,WSW,248,1.0,4.0,60,0.00,,---,0.01,VWS V14.00,2013-09-03 17:36:00,
2013-09-03 12:40:00,70.7,56.6,29.96,SSE,156,0.0,4.0,61,0.00,,---,0.01,VWS V14.00,2013-09-03 17:40:00,
2013-09-03 12:41:00,70.6,55.1,29.96,NW,310,0.0,4.0,58,0.00,,---,0.01,VWS V14.00,2013-09-03 17:41:00,
2013-09-03 12:45:00,70.6,55.1,29.96,South,184,5.0,6.0,58,0.00,,---,0.01,VWS V14.00,2013-09-03 17:45:00,
2013-09-03 12:46:00,70.5,56.9,29.96,NW,304,0.0,7.0,62,0.00,,---,0.01,VWS V14.00,2013-09-03 17:46:00,
2013-09-03 12:50:00,70.7,56.2,29.96,NW,307,5.0,7.0,60,0.00,,---,0.01,VWS V14.00,2013-09-03 17:50:00,
2013-09-03 12:51:00,70.9,55.9,29.96,NW,318,3.0,10.0,59,0.00,,---,0.01,VWS V14.00,2013-09-03 17:51:00,
2013-09-03 12:55:00,70.9,54.9,29.96,SW,232,0.0,10.0,57,0.00,,---,0.01,VWS V14.00,2013-09-03 17:55:00,
2013-09-03 12:56:00,71.1,57.0,29.95,NW,325,0.0,1.0,61,0.00,,---,0.01,VWS V14.00,2013-09-03 17:56:00,
2013-09-03 13:00:00,71.3,56.2,29.96,NW,321,1.0,7.0,59,0.00,,---,0.01,VWS V14.00,2013-09-03 18:00:00,
2013-09-03 13:01:00,71.4,55.9,29.96,NW,309,0.0,4.0,58,0.00,,---,0.01,VWS V14.00,2013-09-03 18:01:00,
2013-09-03 13:05:00,71.6,56.1,29.96,SSW,194,4.0,4.0,58,0.00,,---,0.01,VWS V14.00,2013-09-03 18:05:00,
2013-09-03 13:07:00,71.3,54.8,29.96,South,190,2.0,6.0,56,0.00,,---,0.01,VWS V14.00,2013-09-03 18:07:00,
2013-09-03 13:10:00,71.2,54.7,29.96,WSW,240,0.0,6.0,56,0.00,,---,0.01,VWS V14.00,2013-09-03 18:10:00,
2013-09-03 13:12:00,71.3,54.8,29.96,NW,325,0.0,5.0,56,0.00,,---,0.01,VWS V14.00,2013-09-03 18:12:00,
2013-09-03 13:15:00,71.4,54.4,29.96,WNW,290,0.0,7.0,55,0.00,,---,0.01,VWS V14.00,2013-09-03 18:15:00,
2013-09-03 13:17:00,71.1,54.6,29.96,NNW,344,1.0,4.0,56,0.00,,---,0.01,VWS V14.00,2013-09-03 18:17:00,
2013-09-03 13:20:00,70.8,54.8,29.96,NW,321,0.0,6.0,57,0.00,,---,0.01,VWS V14.00,2013-09-03 18:20:00,
2013-09-03 13:22:00,70.4,54.5,29.95,NNW,329,3.0,10.0,57,0.00,,---,0.01,VWS V14.00,2013-09-03 18:22:00,
2013-09-03 13:25:00,70.4,55.9,29.95,NNW,336,3.0,10.0,60,0.00,,---,0.01,VWS V14.00,2013-09-03 18:25:00,
2013-09-03 13:27:00,70.5,55.0,29.95,NNW,336,1.0,5.0,58,0.00,,---,0.01,VWS V14.00,2013-09-03 18:27:00,
2013-09-03 13:30:00,70.5,55.5,29.95,NNW,327,0.0,5.0,59,0.00,,---,0.01,VWS V14.00,2013-09-03 18:30:00,
2013-09-03 13:32:00,70.7,55.2,29.95,West,265,0.0,6.0,58,0.00,,---,0.01,VWS V14.00,2013-09-03 18:32:00,
2013-09-03 13:35:00,70.8,54.3,29.95,SW,217,4.0,7.0,56,0.00,,---,0.01,VWS V14.00,2013-09-03 18:35:00,
2013-09-03 13:37:00,71.0,55.5,29.95,NNW,331,1.0,4.0,58,0.00,,---,0.01,VWS V14.00,2013-09-03 18:37:00,
2013-09-03 13:40:00,71.3,56.2,29.95,SW,232,0.0,4.0,59,0.00,,---,0.01,VWS V14.00,2013-09-03 18:40:00,
2013-09-03 13:42:00,71.5,55.0,29.95,WSW,245,0.0,5.0,56,0.00,,---,0.01,VWS V14.00,2013-09-03 18:42:00,
2013-09-03 13:45:00,71.6,55.6,29.95,South,171,2.0,5.0,57,0.00,,---,0.01,VWS V14.00,2013-09-03 18:45:00,
2013-09-03 13:47:00,71.6,55.6,29.94,South,171,2.0,5.0,57,0.00,,---,0.01,VWS V14.00,2013-09-03 18:47:00,
2013-09-03 13:50:00,71.4,54.9,29.94,NW,314,1.0,11.0,56,0.00,,---,0.01,VWS V14.00,2013-09-03 18:50:00,
2013-09-03 13:52:00,71.6,55.1,29.94,South,171,2.0,5.0,56,0.00,,---,0.01,VWS V14.00,2013-09-03 18:52:00,
2013-09-03 13:55:00,71.7,53.7,29.94,South,182,0.0,5.0,53,0.00,,---,0.01,VWS V14.00,2013-09-03 18:55:00,
2013-09-03 13:57:00,71.8,53.2,29.94,WNW,294,0.0,6.0,52,0.00,,---,0.01,VWS V14.00,2013-09-03 18:57:00,
2013-09-03 14:00:00,71.9,54.4,29.94,NNW,336,2.0,6.0,54,0.00,,---,0.01,VWS V14.00,2013-09-03 19:00:00,
2013-09-03 14:02:00,71.9,54.9,29.95,SW,221,4.0,7.0,55,0.00,,---,0.01,VWS V14.00,2013-09-03 19:02:00,
2013-09-03 14:05:00,71.7,53.7,29.94,SW,219,0.0,7.0,53,0.00,,---,0.01,VWS V14.00,2013-09-03 19:05:00,
2013-09-03 14:07:00,71.5,54.5,29.94,SW,222,0.0,4.0,55,0.00,,---,0.01,VWS V14.00,2013-09-03 19:07:00,
2013-09-03 14:10:00,71.7,55.2,29.94,SSE,168,3.0,5.0,56,0.00,,---,0.01,VWS V14.00,2013-09-03 19:10:00,
2013-09-03 14:12:00,72.0,54.5,29.94,NNW,329,3.0,6.0,54,0.00,,---,0.01,VWS V14.00,2013-09-03 19:12:00,
2013-09-03 14:15:00,72.2,56.1,29.94,North,9,1.0,6.0,57,0.00,,---,0.01,VWS V14.00,2013-09-03 19:15:00,
2013-09-03 14:17:00,72.4,55.3,29.94,NW,318,2.0,5.0,55,0.00,,---,0.01,VWS V14.00,2013-09-03 19:17:00,
2013-09-03 14:20:00,72.4,55.3,29.94,NNW,330,0.0,5.0,55,0.00,,---,0.01,VWS V14.00,2013-09-03 19:20:00,
2013-09-03 14:22:00,72.5,54.4,29.93,SW,218,0.0,5.0,53,0.00,,---,0.01,VWS V14.00,2013-09-03 19:22:00,
2013-09-03 14:25:00,72.6,54.5,29.93,NNW,330,0.0,5.0,53,0.00,,---,0.01,VWS V14.00,2013-09-03 19:25:00,
2013-09-03 14:27:00,72.5,52.8,29.93,West,269,0.0,6.0,50,0.00,,---,0.01,VWS V14.00,2013-09-03 19:27:00,
2013-09-03 14:30:00,72.5,53.9,29.94,West,265,0.0,6.0,52,0.00,,---,0.01,VWS V14.00,2013-09-03 19:30:00,
2013-09-03 14:32:00,72.2,54.7,29.94,WNW,284,0.0,2.0,54,0.00,,---,0.01,VWS V14.00,2013-09-03 19:32:00,
2013-09-03 14:35:00,72.1,54.6,29.93,NW,319,2.0,3.0,54,0.00,,---,0.01,VWS V14.00,2013-09-03 19:35:00,
2013-09-03 14:37:00,71.9,54.9,29.93,NW,308,0.0,6.0,55,0.00,,---,0.01,VWS V14.00,2013-09-03 19:37:00,
2013-09-03 14:40:00,71.8,54.8,29.93,NW,304,0.0,6.0,55,0.00,,---,0.01,VWS V14.00,2013-09-03 19:40:00,
2013-09-03 14:42:00,71.7,55.2,29.93,WNW,295,0.0,3.0,56,0.00,,---,0.01,VWS V14.00,2013-09-03 19:42:00,
2013-09-03 14:45:00,71.7,55.2,29.93,WNW,298,0.0,3.0,56,0.00,,---,0.01,VWS V14.00,2013-09-03 19:45:00,
2013-09-03 14:47:00,71.7,54.7,29.93,NNW,340,0.0,4.0,55,0.00,,---,0.01,VWS V14.00,2013-09-03 19:47:00,
2013-09-03 14:50:00,71.7,55.7,29.93,NNW,339,0.0,4.0,57,0.00,,---,0.01,VWS V14.00,2013-09-03 19:50:00,
2013-09-03 14:52:00,72.2,56.1,29.92,North,350,0.0,4.0,57,0.00,,---,0.01,VWS V14.00,2013-09-03 19:52:00,
2013-09-03 14:55:00,72.4,55.8,29.92,WSW,250,4.0,5.0,56,0.00,,---,0.01,VWS V14.00,2013-09-03 19:55:00,
2013-09-03 14:57:00,72.7,55.6,29.92,NNW,333,0.0,4.0,55,0.00,,---,0.01,VWS V14.00,2013-09-03 19:57:00,
2013-09-03 15:00:00,72.9,56.3,29.92,NW,320,0.0,7.0,56,0.00,,---,0.01,VWS V14.00,2013-09-03 20:00:00,
2013-09-03 15:02:00,73.2,56.1,29.92,NNW,344,1.0,6.0,55,0.00,,---,0.01,VWS V14.00,2013-09-03 20:02:00,
2013-09-03 15:05:00,73.1,56.0,29.92,NNW,348,1.0,6.0,55,0.00,,---,0.01,VWS V14.00,2013-09-03 20:05:00,
2013-09-03 15:07:00,73.1,55.5,29.92,WNW,300,0.0,5.0,54,0.00,,---,0.01,VWS V14.00,2013-09-03 20:07:00,
2013-09-03 15:10:00,73.0,55.9,29.92,West,264,0.0,5.0,55,0.00,,---,0.01,VWS V14.00,2013-09-03 20:10:00,
2013-09-03 15:13:00,72.9,56.3,29.92,SW,226,1.0,5.0,56,0.00,,---,0.01,VWS V14.00,2013-09-03 20:13:00,
2013-09-03 15:15:00,72.9,56.3,29.92,SW,220,0.0,5.0,56,0.00,,---,0.01,VWS V14.00,2013-09-03 20:15:00,
2013-09-03 15:18:00,73.1,56.0,29.91,South,171,4.0,4.0,55,0.00,,---,0.01,VWS V14.00,2013-09-03 20:18:00,
2013-09-03 15:20:00,73.1,56.0,29.91,SSE,166,0.0,4.0,55,0.00,,---,0.01,VWS V14.00,2013-09-03 20:20:00,
2013-09-03 15:23:00,73.3,56.7,29.91,SW,215,1.0,3.0,56,0.00,,---,0.01,VWS V14.00,2013-09-03 20:23:00,
2013-09-03 15:25:00,73.4,56.3,29.91,West,265,0.0,3.0,55,0.00,,---,0.01,VWS V14.00,2013-09-03 20:25:00,
2013-09-03 15:28:00,73.9,57.2,29.91,SW,234,1.0,3.0,56,0.00,,---,0.01,VWS V14.00,2013-09-03 20:28:00,
2013-09-03 15:30:00,73.9,56.7,29.91,NW,319,0.0,5.0,55,0.00,,---,0.01,VWS V14.00,2013-09-03 20:30:00,
2013-09-03 15:33:00,73.8,57.1,29.91,NNW,338,0.0,5.0,56,0.00,,---,0.01,VWS V14.00,2013-09-03 20:33:00,
2013-09-03 15:35:00,73.5,56.4,29.91,NNW,333,0.0,5.0,55,0.00,,---,0.01,VWS V14.00,2013-09-03 20:35:00,
2013-09-03 15:38:00,72.8,56.2,29.91,NNW,333,0.0,6.0,56,0.00,,---,0.01,VWS V14.00,2013-09-03 20:38:00,
2013-09-03 15:43:00,72.3,57.2,29.91,NNW,328,0.0,5.0,59,0.00,,---,0.01,VWS V14.00,2013-09-03 20:43:00,
2013-09-03 15:45:00,72.3,57.2,29.91,NNW,328,0.0,5.0,59,0.00,,---,0.01,VWS V14.00,2013-09-03 20:45:00,
2013-09-03 15:48:00,72.2,56.6,29.91,NW,316,0.0,5.0,58,0.00,,---,0.01,VWS V14.00,2013-09-03 20:48:00,
2013-09-03 15:50:00,72.1,56.5,29.91,NW,315,0.0,5.0,58,0.00,,---,0.01,VWS V14.00,2013-09-03 20:50:00,
2013-09-03 15:53:00,71.9,56.3,29.91,NW,315,0.0,1.0,58,0.00,,---,0.01,VWS V14.00,2013-09-03 20:53:00,
2013-09-03 15:55:00,71.9,55.9,29.91,NW,316,0.0,1.0,57,0.00,,---,0.01,VWS V14.00,2013-09-03 20:55:00,
2013-09-03 15:58:00,71.9,55.9,29.91,NW,316,0.0,3.0,57,0.00,,---,0.01,VWS V14.00,2013-09-03 20:58:00,
2013-09-03 16:00:00,71.9,56.8,29.91,NW,321,2.0,4.0,59,0.00,,---,0.01,VWS V14.00,2013-09-03 21:00:00,
2013-09-03 16:03:00,71.9,57.3,29.91,NW,321,0.0,2.0,60,0.00,,---,0.01,VWS V14.00,2013-09-03 21:03:00,
2013-09-03 16:05:00,71.9,57.3,29.91,NW,322,0.0,4.0,60,0.00,,---,0.01,VWS V14.00,2013-09-03 21:05:00,
2013-09-03 16:08:00,72.1,56.5,29.91,NW,325,3.0,4.0,58,0.00,,---,0.01,VWS V14.00,2013-09-03 21:08:00,
2013-09-03 16:10:00,72.1,56.5,29.91,NW,325,1.0,4.0,58,0.00,,---,0.01,VWS V14.00,2013-09-03 21:10:00,
2013-09-03 16:13:00,72.2,56.6,29.91,NW,325,1.0,3.0,58,0.00,,---,0.01,VWS V14.00,2013-09-03 21:13:00,
2013-09-03 16:15:00,72.2,56.6,29.91,NW,325,0.0,3.0,58,0.00,,---,0.01,VWS V14.00,2013-09-03 21:15:00,
2013-09-03 16:18:00,72.1,57.0,29.91,NW,325,0.0,0.0,59,0.00,,---,0.01,VWS V14.00,2013-09-03 21:18:00,
2013-09-03 16:20:00,72.1,57.0,29.91,NW,325,0.0,1.0,59,0.00,,---,0.01,VWS V14.00,2013-09-03 21:20:00,
2013-09-03 16:23:00,72.0,56.9,29.91,NW,325,0.0,1.0,59,0.00,,---,0.01,VWS V14.00,2013-09-03 21:23:00,
2013-09-03 16:25:00,72.0,57.8,29.91,NW,325,0.0,1.0,61,0.00,,---,0.01,VWS V14.00,2013-09-03 21:25:00,
2013-09-03 16:28:00,71.8,57.6,29.91,NNW,342,0.0,4.0,61,0.00,,---,0.01,VWS V14.00,2013-09-03 21:28:00,
2013-09-03 16:30:00,71.7,57.5,29.91,NNW,342,0.0,4.0,61,0.00,,---,0.01,VWS V14.00,2013-09-03 21:30:00,
2013-09-03 16:33:00,71.7,58.0,29.91,NNW,341,0.0,2.0,62,0.00,,---,0.01,VWS V14.00,2013-09-03 21:33:00,
2013-09-03 16:35:00,71.6,57.9,29.91,NNW,342,1.0,2.0,62,0.00,,---,0.01,VWS V14.00,2013-09-03 21:35:00,
2013-09-03 16:38:00,71.8,58.5,29.91,NNW,342,0.0,1.0,63,0.00,,---,0.01,VWS V14.00,2013-09-03 21:38:00,
2013-09-03 16:40:00,71.9,58.2,29.91,NNW,341,0.0,1.0,62,0.00,,---,0.01,VWS V14.00,2013-09-03 21:40:00,
2013-09-03 16:43:00,72.4,58.2,29.91,NNW,341,0.0,1.0,61,0.00,,---,0.01,VWS V14.00,2013-09-03 21:43:00,
2013-09-03 16:45:00,72.5,57.8,29.91,NNW,341,0.0,1.0,60,0.00,,---,0.01,VWS V14.00,2013-09-03 21:45:00,
2013-09-03 16:48:00,72.6,57.9,29.91,WNW,299,0.0,5.0,60,0.00,,---,0.01,VWS V14.00,2013-09-03 21:48:00,
2013-09-03 16:50:00,72.6,58.4,29.91,WNW,299,0.0,5.0,61,0.00,,---,0.01,VWS V14.00,2013-09-03 21:50:00,
2013-09-03 16:53:00,72.5,58.3,29.91,NNW,333,0.0,4.0,61,0.00,,---,0.01,VWS V14.00,2013-09-03 21:53:00,
2013-09-03 16:55:00,72.4,57.8,29.91,NNW,332,3.0,4.0,60,0.00,,---,0.01,VWS V14.00,2013-09-03 21:55:00,
2013-09-03 16:58:00,72.5,58.3,29.91,NNW,332,0.0,3.0,61,0.00,,---,0.01,VWS V14.00,2013-09-03 21:58:00,
2013-09-03 17:00:00,72.5,58.3,29.91,NNW,334,1.0,3.0,61,0.00,,---,0.01,VWS V14.00,2013-09-03 22:00:00,
2013-09-03 17:03:00,72.8,57.7,29.91,North,5,0.0,5.0,59,0.00,,---,0.01,VWS V14.00,2013-09-03 22:03:00,
2013-09-03 17:05:00,72.8,57.7,29.91,North,360,0.0,5.0,59,0.00,,---,0.01,VWS V14.00,2013-09-03 22:05:00,
2013-09-03 17:08:00,73.0,57.8,29.91,North,360,2.0,4.0,59,0.00,,---,0.01,VWS V14.00,2013-09-03 22:08:00,
2013-09-03 17:10:00,73.0,57.4,29.91,North,5,4.0,5.0,58,0.00,,---,0.01,VWS V14.00,2013-09-03 22:10:00,
2013-09-03 17:13:00,72.9,57.8,29.91,North,5,1.0,5.0,59,0.00,,---,0.01,VWS V14.00,2013-09-03 22:13:00,
2013-09-03 17:15:00,72.9,58.2,29.91,North,5,1.0,5.0,60,0.00,,---,0.01,VWS V14.00,2013-09-03 22:15:00,
2013-09-03 17:18:00,72.8,57.7,29.91,North,350,0.0,3.0,59,0.00,,---,0.01,VWS V14.00,2013-09-03 22:18:00,
2013-09-03 17:20:00,72.9,58.2,29.91,North,349,0.0,3.0,60,0.00,,---,0.01,VWS V14.00,2013-09-03 22:20:00,
2013-09-03 17:24:00,73.2,57.5,29.91,NNW,345,0.0,2.0,58,0.00,,---,0.01,VWS V14.00,2013-09-03 22:24:00,
2013-09-03 17:25:00,73.3,57.7,29.91,NNW,345,0.0,2.0,58,0.00,,---,0.01,VWS V14.00,2013-09-03 22:25:00,
2013-09-03 17:29:00,73.5,58.3,29.91,NNW,345,0.0,1.0,59,0.00,,---,0.01,VWS V14.00,2013-09-03 22:29:00,
2013-09-03 17:30:00,73.6,58.4,29.91,NNW,345,0.0,1.0,59,0.00,,---,0.01,VWS V14.00,2013-09-03 22:30:00,
2013-09-03 17:34:00,73.8,57.6,29.90,NNW,339,0.0,2.0,57,0.00,,---,0.01,VWS V14.00,2013-09-03 22:34:00,
2013-09-03 17:35:00,73.8,57.6,29.90,NNW,339,0.0,2.0,57,0.00,,---,0.01,VWS V14.00,2013-09-03 22:35:00,
2013-09-03 17:39:00,74.1,58.4,29.90,NW,325,0.0,1.0,58,0.00,,---,0.01,VWS V14.00,2013-09-03 22:39:00,
2013-09-03 17:40:00,74.1,57.9,29.90,NW,322,0.0,3.0,57,0.00,,---,0.01,VWS V14.00,2013-09-03 22:40:00,
2013-09-03 17:44:00,74.0,57.8,29.90,NNW,332,0.0,4.0,57,0.00,,---,0.01,VWS V14.00,2013-09-03 22:44:00,
2013-09-03 17:45:00,74.0,57.8,29.90,NNW,332,0.0,4.0,57,0.00,,---,0.01,VWS V14.00,2013-09-03 22:45:00,
2013-09-03 17:49:00,73.7,57.5,29.90,NW,325,0.0,3.0,57,0.00,,---,0.01,VWS V14.00,2013-09-03 22:49:00,
2013-09-03 17:50:00,73.7,57.5,29.90,NW,325,0.0,3.0,57,0.00,,---,0.01,VWS V14.00,2013-09-03 22:50:00,
2013-09-03 17:54:00,73.2,57.5,29.90,NW,314,0.0,4.0,58,0.00,,---,0.01,VWS V14.00,2013-09-03 22:54:00,
2013-09-03 17:55:00,73.2,57.5,29.90,NW,314,0.0,4.0,58,0.00,,---,0.01,VWS V14.00,2013-09-03 22:55:00,
2013-09-03 17:59:00,72.8,57.7,29.90,NW,314,0.0,1.0,59,0.00,,---,0.01,VWS V14.00,2013-09-03 22:59:00,
2013-09-03 18:00:00,72.8,57.7,29.90,NW,314,0.0,1.0,59,0.00,,---,0.01,VWS V14.00,2013-09-03 23:00:00,
2013-09-03 18:04:00,72.3,57.7,29.90,NW,314,0.0,1.0,60,0.00,,---,0.01,VWS V14.00,2013-09-03 23:04:00,
2013-09-03 18:05:00,72.3,57.7,29.90,NW,314,0.0,1.0,60,0.00,,---,0.01,VWS V14.00,2013-09-03 23:05:00,
2013-09-03 18:09:00,71.9,57.3,29.90,WNW,290,0.0,1.0,60,0.00,,---,0.01,VWS V14.00,2013-09-03 23:09:00,
2013-09-03 18:10:00,71.9,57.3,29.90,WNW,290,0.0,1.0,60,0.00,,---,0.01,VWS V14.00,2013-09-03 23:10:00,
2013-09-03 18:14:00,71.8,57.6,29.90,WNW,290,0.0,1.0,61,0.00,,---,0.01,VWS V14.00,2013-09-03 23:14:00,
2013-09-03 18:15:00,71.8,57.6,29.90,WNW,290,0.0,1.0,61,0.00,,---,0.01,VWS V14.00,2013-09-03 23:15:00,
2013-09-03 18:19:00,71.7,57.5,29.90,WNW,290,0.0,1.0,61,0.00,,---,0.01,VWS V14.00,2013-09-03 23:19:00,
2013-09-03 18:20:00,71.7,57.5,29.90,WNW,290,0.0,1.0,61,0.00,,---,0.01,VWS V14.00,2013-09-03 23:20:00,
2013-09-03 18:24:00,71.7,58.5,29.89,WNW,290,0.0,0.0,63,0.00,,---,0.01,VWS V14.00,2013-09-03 23:24:00,
2013-09-03 18:25:00,71.7,58.5,29.89,WNW,290,0.0,0.0,63,0.00,,---,0.01,VWS V14.00,2013-09-03 23:25:00,
2013-09-03 18:29:00,71.5,57.4,29.89,WNW,290,0.0,1.0,61,0.00,,---,0.01,VWS V14.00,2013-09-03 23:29:00,
2013-09-03 18:30:00,71.5,57.8,29.89,WNW,290,0.0,1.0,62,0.00,,---,0.01,VWS V14.00,2013-09-03 23:30:00,
2013-09-03 18:34:00,71.4,57.7,29.90,WNW,290,0.0,0.0,62,0.00,,---,0.01,VWS V14.00,2013-09-03 23:34:00,
2013-09-03 18:35:00,71.3,57.6,29.90,WNW,290,0.0,0.0,62,0.00,,---,0.01,VWS V14.00,2013-09-03 23:35:00,
2013-09-03 18:39:00,71.1,57.4,29.90,WNW,290,0.0,1.0,62,0.00,,---,0.01,VWS V14.00,2013-09-03 23:39:00,
2013-09-03 18:40:00,71.1,57.4,29.90,WNW,290,0.0,1.0,62,0.00,,---,0.01,VWS V14.00,2013-09-03 23:40:00,
2013-09-03 18:44:00,70.8,57.6,29.90,WNW,290,0.0,0.0,63,0.00,,---,0.01,VWS V14.00,2013-09-03 23:44:00,
2013-09-03 18:45:00,70.8,57.6,29.90,WNW,290,0.0,0.0,63,0.00,,---,0.01,VWS V14.00,2013-09-03 23:45:00,
2013-09-03 18:49:00,70.4,57.2,29.90,WNW,290,0.0,0.0,63,0.00,,---,0.01,VWS V14.00,2013-09-03 23:49:00,
2013-09-03 18:50:00,70.4,57.2,29.90,WNW,290,0.0,0.0,63,0.00,,---,0.01,VWS V14.00,2013-09-03 23:50:00,
2013-09-03 18:54:00,70.1,57.4,29.90,WNW,290,0.0,1.0,64,0.00,,---,0.01,VWS V14.00,2013-09-03 23:54:00,
2013-09-03 18:55:00,70.1,57.4,29.90,WNW,290,0.0,1.0,64,0.00,,---,0.01,VWS V14.00,2013-09-03 23:55:00,
2013-09-03 18:59:00,69.6,57.3,29.90,WNW,290,0.0,0.0,65,0.00,,---,0.01,VWS V14.00,2013-09-03 23:59:00,
2013-09-03 19:00:00,69.6,57.3,29.90,WNW,290,0.0,0.0,65,0.00,,---,0.01,VWS V14.00,2013-09-04 00:00:00,
2013-09-03 19:04:00,69.0,57.2,29.91,WNW,290,0.0,1.0,66,0.00,,---,0.01,VWS V14.00,2013-09-04 00:04:00,
2013-09-03 19:05:00,69.0,57.2,29.91,WNW,290,0.0,1.0,66,0.00,,---,0.01,VWS V14.00,2013-09-04 00:05:00,
2013-09-03 19:09:00,68.4,56.6,29.91,WNW,290,0.0,1.0,66,0.00,,---,0.01,VWS V14.00,2013-09-04 00:09:00,
2013-09-03 19:10:00,68.4,56.6,29.91,WNW,290,0.0,1.0,66,0.00,,---,0.01,VWS V14.00,2013-09-04 00:10:00,
2013-09-03 19:14:00,67.9,56.5,29.91,WNW,290,0.0,0.0,67,0.00,,---,0.01,VWS V14.00,2013-09-04 00:14:00,
2013-09-03 19:15:00,67.9,56.5,29.91,WNW,290,0.0,0.0,67,0.00,,---,0.01,VWS V14.00,2013-09-04 00:15:00,
2013-09-03 19:19:00,67.5,56.6,29.91,WNW,290,0.0,0.0,68,0.00,,---,0.01,VWS V14.00,2013-09-04 00:19:00,
2013-09-03 19:20:00,67.5,56.6,29.91,WNW,290,0.0,0.0,68,0.00,,---,0.01,VWS V14.00,2013-09-04 00:20:00,
2013-09-03 19:24:00,67.1,56.6,29.91,WNW,290,0.0,0.0,69,0.00,,---,0.01,VWS V14.00,2013-09-04 00:24:00,
2013-09-03 19:25:00,67.1,56.6,29.91,WNW,290,0.0,0.0,69,0.00,,---,0.01,VWS V14.00,2013-09-04 00:25:00,
2013-09-03 19:29:00,66.5,56.4,29.91,WNW,290,0.0,0.0,70,0.00,,---,0.01,VWS V14.00,2013-09-04 00:29:00,
2013-09-03 19:30:00,66.5,56.4,29.91,WNW,290,0.0,0.0,70,0.00,,---,0.01,VWS V14.00,2013-09-04 00:30:00,
2013-09-03 19:34:00,65.7,56.4,29.91,WNW,290,0.0,1.0,72,0.00,,---,0.01,VWS V14.00,2013-09-04 00:34:00,
2013-09-03 19:35:00,65.7,56.4,29.91,WNW,290,0.0,1.0,72,0.00,,---,0.01,VWS V14.00,2013-09-04 00:35:00,
2013-09-03 19:39:00,65.0,56.2,29.92,WNW,290,0.0,0.0,73,0.00,,---,0.01,VWS V14.00,2013-09-04 00:39:00,
2013-09-03 19:40:00,65.0,56.2,29.92,WNW,290,0.0,0.0,73,0.00,,---,0.01,VWS V14.00,2013-09-04 00:40:00,
2013-09-03 19:44:00,64.4,55.9,29.92,WNW,290,0.0,1.0,74,0.00,,---,0.01,VWS V14.00,2013-09-04 00:44:00,
2013-09-03 19:45:00,64.4,55.9,29.92,WNW,290,0.0,1.0,74,0.00,,---,0.01,VWS V14.00,2013-09-04 00:45:00,
2013-09-03 19:49:00,63.9,55.8,29.91,WNW,290,0.0,0.0,75,0.00,,---,0.01,VWS V14.00,2013-09-04 00:49:00,
2013-09-03 19:50:00,63.9,55.8,29.91,WNW,290,0.0,0.0,75,0.00,,---,0.01,VWS V14.00,2013-09-04 00:50:00,
2013-09-03 19:54:00,63.4,55.7,29.92,WNW,290,0.0,0.0,76,0.00,,---,0.01,VWS V14.00,2013-09-04 00:54:00,
2013-09-03 19:55:00,63.4,55.7,29.92,WNW,290,0.0,0.0,76,0.00,,---,0.01,VWS V14.00,2013-09-04 00:55:00,
2013-09-03 19:59:00,62.4,55.5,29.91,WNW,290,0.0,0.0,78,0.00,,---,0.01,VWS V14.00,2013-09-04 00:59:00,
2013-09-03 20:00:00,62.4,55.5,29.91,WNW,290,0.0,0.0,78,0.00,,---,0.01,VWS V14.00,2013-09-04 01:00:00,
2013-09-03 20:04:00,61.8,55.2,29.91,WNW,290,0.0,0.0,79,0.00,,---,0.01,VWS V14.00,2013-09-04 01:04:00,
2013-09-03 20:05:00,61.8,55.2,29.91,WNW,290,0.0,0.0,79,0.00,,---,0.01,VWS V14.00,2013-09-04 01:05:00,
2013-09-03 20:09:00,61.2,55.0,29.92,WNW,290,0.0,1.0,80,0.00,,---,0.01,VWS V14.00,2013-09-04 01:09:00,
2013-09-03 20:10:00,61.2,55.0,29.92,WNW,290,0.0,1.0,80,0.00,,---,0.01,VWS V14.00,2013-09-04 01:10:00,
2013-09-03 20:14:00,60.9,55.4,29.92,WNW,290,0.0,0.0,82,0.00,,---,0.01,VWS V14.00,2013-09-04 01:14:00,
2013-09-03 20:15:00,60.9,55.4,29.92,WNW,290,0.0,0.0,82,0.00,,---,0.01,VWS V14.00,2013-09-04 01:15:00,
2013-09-03 20:19:00,60.6,55.4,29.92,WNW,290,0.0,0.0,83,0.00,,---,0.01,VWS V14.00,2013-09-04 01:19:00,
2013-09-03 20:20:00,60.6,55.4,29.92,WNW,290,0.0,0.0,83,0.00,,---,0.01,VWS V14.00,2013-09-04 01:20:00,
2013-09-03 20:24:00,60.4,55.5,29.92,WNW,290,0.0,0.0,84,0.00,,---,0.01,VWS V14.00,2013-09-04 01:24:00,
2013-09-03 20:25:00,60.4,55.5,29.92,WNW,290,0.0,0.0,84,0.00,,---,0.01,VWS V14.00,2013-09-04 01:25:00,
2013-09-03 20:29:00,60.3,55.8,29.92,WNW,290,0.0,0.0,85,0.00,,---,0.01,VWS V14.00,2013-09-04 01:29:00,
2013-09-03 20:30:00,60.3,55.8,29.92,WNW,290,0.0,0.0,85,0.00,,---,0.01,VWS V14.00,2013-09-04 01:30:00,
2013-09-03 20:34:00,60.0,55.5,29.92,WNW,290,0.0,0.0,85,0.00,,---,0.01,VWS V14.00,2013-09-04 01:34:00,
2013-09-03 20:35:00,60.0,55.5,29.92,WNW,290,0.0,0.0,85,0.00,,---,0.01,VWS V14.00,2013-09-04 01:35:00,
2013-09-03 20:39:00,59.3,55.1,29.92,WNW,290,0.0,0.0,86,0.00,,---,0.01,VWS V14.00,2013-09-04 01:39:00,
2013-09-03 20:40:00,59.3,55.1,29.92,WNW,290,0.0,0.0,86,0.00,,---,0.01,VWS V14.00,2013-09-04 01:40:00,
2013-09-03 20:44:00,58.9,55.0,29.92,WNW,290,0.0,0.0,87,0.00,,---,0.01,VWS V14.00,2013-09-04 01:44:00,
2013-09-03 20:45:00,58.9,55.0,29.92,WNW,290,0.0,0.0,87,0.00,,---,0.01,VWS V14.00,2013-09-04 01:45:00,
2013-09-03 20:49:00,58.7,55.2,29.92,WNW,290,0.0,0.0,88,0.00,,---,0.01,VWS V14.00,2013-09-04 01:49:00,
2013-09-03 20:50:00,58.7,55.2,29.92,WNW,290,0.0,0.0,88,0.00,,---,0.01,VWS V14.00,2013-09-04 01:50:00,
2013-09-03 20:54:00,58.6,55.1,29.92,WNW,290,0.0,0.0,88,0.00,,---,0.01,VWS V14.00,2013-09-04 01:54:00,
2013-09-03 20:55:00,58.6,55.1,29.92,WNW,290,0.0,0.0,88,0.00,,---,0.01,VWS V14.00,2013-09-04 01:55:00,
2013-09-03 20:59:00,58.5,55.3,29.91,WNW,290,0.0,0.0,89,0.00,,---,0.01,VWS V14.00,2013-09-04 01:59:00,
2013-09-03 21:00:00,58.5,55.3,29.92,WNW,290,0.0,0.0,89,0.00,,---,0.01,VWS V14.00,2013-09-04 02:00:00,
2013-09-03 21:04:00,58.3,55.4,29.92,WNW,290,0.0,0.0,90,0.00,,---,0.01,VWS V14.00,2013-09-04 02:04:00,
2013-09-03 21:05:00,58.3,55.4,29.92,WNW,290,0.0,0.0,90,0.00,,---,0.01,VWS V14.00,2013-09-04 02:05:00,
2013-09-03 21:09:00,58.2,55.3,29.92,WNW,290,0.0,0.0,90,0.00,,---,0.01,VWS V14.00,2013-09-04 02:09:00,
2013-09-03 21:10:00,58.2,55.3,29.92,WNW,290,0.0,0.0,90,0.00,,---,0.01,VWS V14.00,2013-09-04 02:10:00,
2013-09-03 21:14:00,58.0,55.1,29.92,WNW,290,0.0,0.0,90,0.00,,---,0.01,VWS V14.00,2013-09-04 02:14:00,
2013-09-03 21:15:00,58.0,55.1,29.92,WNW,290,0.0,1.0,90,0.00,,---,0.01,VWS V14.00,2013-09-04 02:15:00,
2013-09-03 21:19:00,57.9,55.3,29.92,WNW,290,0.0,0.0,91,0.00,,---,0.01,VWS V14.00,2013-09-04 02:19:00,
2013-09-03 21:20:00,57.9,55.3,29.92,WNW,290,0.0,0.0,91,0.00,,---,0.01,VWS V14.00,2013-09-04 02:20:00,
2013-09-03 21:24:00,57.8,55.2,29.92,WNW,290,0.0,0.0,91,0.00,,---,0.01,VWS V14.00,2013-09-04 02:24:00,
2013-09-03 21:25:00,57.8,55.2,29.92,WNW,290,0.0,0.0,91,0.00,,---,0.01,VWS V14.00,2013-09-04 02:25:00,
2013-09-03 21:30:00,57.5,54.6,29.92,WNW,290,0.0,0.0,90,0.00,,---,0.01,VWS V14.00,2013-09-04 02:30:00,
2013-09-03 21:35:00,57.1,54.2,29.91,WNW,290,0.0,0.0,90,0.00,,---,0.01,VWS V14.00,2013-09-04 02:35:00,
2013-09-03 21:40:00,56.7,54.1,29.92,WNW,290,0.0,0.0,91,0.00,,---,0.01,VWS V14.00,2013-09-04 02:40:00,
2013-09-03 21:45:00,56.6,54.0,29.91,WNW,290,0.0,0.0,91,0.00,,---,0.01,VWS V14.00,2013-09-04 02:45:00,
2013-09-03 21:50:00,56.6,54.3,29.92,WNW,290,0.0,1.0,92,0.00,,---,0.01,VWS V14.00,2013-09-04 02:50:00,
2013-09-03 21:55:00,56.4,54.1,29.92,WNW,290,0.0,0.0,92,0.00,,---,0.01,VWS V14.00,2013-09-04 02:55:00,
2013-09-03 22:00:00,56.2,53.9,29.91,WNW,290,0.0,0.0,92,0.00,,---,0.01,VWS V14.00,2013-09-04 03:00:00,
2013-09-03 22:05:00,56.0,53.7,29.91,WNW,290,0.0,0.0,92,0.00,,---,0.01,VWS V14.00,2013-09-04 03:05:00,
2013-09-03 22:10:00,55.6,53.3,29.91,WNW,290,0.0,0.0,92,0.00,,---,0.01,VWS V14.00,2013-09-04 03:10:00,
2013-09-03 22:15:00,55.4,53.1,29.92,WNW,290,0.0,0.0,92,0.00,,---,0.01,VWS V14.00,2013-09-04 03:15:00,
2013-09-03 22:20:00,55.1,52.8,29.92,WNW,290,0.0,0.0,92,0.00,,---,0.01,VWS V14.00,2013-09-04 03:20:00,
2013-09-03 22:25:00,54.8,52.5,29.92,WNW,290,0.0,0.0,92,0.00,,---,0.01,VWS V14.00,2013-09-04 03:25:00,
2013-09-03 22:30:00,54.5,52.5,29.92,WNW,290,0.0,0.0,93,0.00,,---,0.01,VWS V14.00,2013-09-04 03:30:00,
2013-09-03 22:35:00,54.4,52.4,29.92,WNW,290,0.0,0.0,93,0.00,,---,0.01,VWS V14.00,2013-09-04 03:35:00,
2013-09-03 22:40:00,54.2,52.2,29.92,WNW,290,0.0,0.0,93,0.00,,---,0.01,VWS V14.00,2013-09-04 03:40:00,
2013-09-03 22:45:00,54.1,52.1,29.92,WNW,290,0.0,0.0,93,0.00,,---,0.01,VWS V14.00,2013-09-04 03:45:00,
2013-09-03 22:50:00,54.1,52.1,29.92,WNW,290,0.0,0.0,93,0.00,,---,0.01,VWS V14.00,2013-09-04 03:50:00,
2013-09-03 22:55:00,54.2,52.5,29.92,WNW,290,0.0,0.0,94,0.00,,---,0.01,VWS V14.00,2013-09-04 03:55:00,
2013-09-03 23:00:00,54.1,52.1,29.92,WNW,290,0.0,0.0,93,0.00,,---,0.01,VWS V14.00,2013-09-04 04:00:00,
2013-09-03 23:01:00,54.0,52.0,29.92,WNW,290,0.0,0.0,93,0.00,,---,0.01,VWS V14.00,2013-09-04 04:01:00,
2013-09-03 23:02:00,54.0,52.0,29.92,WNW,290,0.0,0.0,93,0.00,,---,0.01,VWS V14.00,2013-09-04 04:02:00,
2013-09-03 23:04:00,53.9,51.9,29.92,WNW,290,0.0,0.0,93,0.00,,---,0.01,VWS V14.00,2013-09-04 04:04:00,
2013-09-03 23:05:00,53.9,51.9,29.92,WNW,290,0.0,0.0,93,0.00,,---,0.01,VWS V14.00,2013-09-04 04:05:00,
2013-09-03 23:09:00,53.9,52.2,29.92,WNW,290,0.0,0.0,94,0.00,,---,0.01,VWS V14.00,2013-09-04 04:09:00,
2013-09-03 23:10:00,53.9,52.2,29.92,WNW,290,0.0,0.0,94,0.00,,---,0.01,VWS V14.00,2013-09-04 04:10:00,
2013-09-03 23:14:00,54.1,52.4,29.92,WNW,290,0.0,0.0,94,0.00,,---,0.01,VWS V14.00,2013-09-04 04:14:00,
2013-09-03 23:15:00,54.1,52.4,29.92,WNW,290,0.0,0.0,94,0.00,,---,0.01,VWS V14.00,2013-09-04 04:15:00,
2013-09-03 23:19:00,54.1,52.4,29.92,WNW,290,0.0,0.0,94,0.00,,---,0.01,VWS V14.00,2013-09-04 04:19:00,
2013-09-03 23:20:00,54.1,52.4,29.92,WNW,290,0.0,0.0,94,0.00,,---,0.01,VWS V14.00,2013-09-04 04:20:00,
2013-09-03 23:24:00,54.0,52.3,29.92,WNW,290,0.0,0.0,94,0.00,,---,0.01,VWS V14.00,2013-09-04 04:24:00,
2013-09-03 23:25:00,54.0,52.3,29.92,WNW,290,0.0,0.0,94,0.00,,---,0.01,VWS V14.00,2013-09-04 04:25:00,
2013-09-03 23:29:00,53.7,52.0,29.92,WNW,290,0.0,0.0,94,0.00,,---,0.01,VWS V14.00,2013-09-04 04:29:00,
2013-09-03 23:30:00,53.7,52.0,29.92,WNW,290,0.0,0.0,94,0.00,,---,0.01,VWS V14.00,2013-09-04 04:30:00,
2013-09-03 23:34:00,53.6,51.9,29.92,WNW,290,0.0,0.0,94,0.00,,---,0.01,VWS V14.00,2013-09-04 04:34:00,
2013-09-03 23:35:00,53.6,51.9,29.92,WNW,290,0.0,0.0,94,0.00,,---,0.01,VWS V14.00,2013-09-04 04:35:00,
2013-09-03 23:39:00,53.5,51.8,29.92,WNW,290,0.0,0.0,94,0.00,,---,0.01,VWS V14.00,2013-09-04 04:39:00,
2013-09-03 23:40:00,53.5,51.8,29.92,WNW,290,0.0,0.0,94,0.00,,---,0.01,VWS V14.00,2013-09-04 04:40:00,
2013-09-03 23:44:00,53.4,51.7,29.92,WNW,290,0.0,0.0,94,0.00,,---,0.01,VWS V14.00,2013-09-04 04:44:00,
2013-09-03 23:45:00,53.4,51.7,29.92,WNW,290,0.0,0.0,94,0.00,,---,0.01,VWS V14.00,2013-09-04 04:45:00,
2013-09-03 23:49:00,53.7,52.3,29.92,WNW,290,0.0,0.0,95,0.00,,---,0.01,VWS V14.00,2013-09-04 04:49:00,
2013-09-03 23:50:00,53.7,52.3,29.92,WNW,290,0.0,0.0,95,0.00,,---,0.01,VWS V14.00,2013-09-04 04:50:00,
2013-09-03 23:54:00,53.7,52.3,29.92,WNW,290,0.0,0.0,95,0.00,,---,0.01,VWS V14.00,2013-09-04 04:54:00,
2013-09-03 23:55:00,53.7,52.3,29.92,WNW,290,0.0,0.0,95,0.00,,---,0.01,VWS V14.00,2013-09-04 04:55:00,
2013-09-03 23:59:00,53.4,51.7,29.92,WNW,290,0.0,0.0,94,0.00,,---,0.00,VWS V14.00,2013-09-04 04:59:00,